createdAt,value
2018-01-07T00:01:28.309Z,51.48
2018-01-07T00:03:54.273Z,51.41
2018-01-07T00:06:20.256Z,51.40
2018-01-07T00:08:46.245Z,51.13
2018-01-07T00:11:12.220Z,51.26
2018-01-07T00:13:38.204Z,51.21
2018-01-07T00:16:04.204Z,52.05
2018-01-07T00:18:30.166Z,51.47
2018-01-07T00:20:56.144Z,51.94
2018-01-07T00:23:22.116Z,51.79
2018-01-07T00:25:48.071Z,52.49
2018-01-07T00:28:14.031Z,52.02
2018-01-07T00:30:40.011Z,51.94
2018-01-07T00:33:05.967Z,52.46
2018-01-07T00:35:31.946Z,52.39
2018-01-07T00:37:57.937Z,52.41
2018-01-07T00:40:23.912Z,52.01
2018-01-07T00:42:49.925Z,51.34
2018-01-07T00:45:15.889Z,51.31
2018-01-07T00:47:41.845Z,52.00
2018-01-07T00:50:07.809Z,51.90
2018-01-07T00:52:33.839Z,52.03
2018-01-07T00:54:59.855Z,51.90
2018-01-07T00:57:25.813Z,52.05
2018-01-07T00:59:51.808Z,52.48
2018-01-07T01:02:17.824Z,52.57
2018-01-07T01:04:43.816Z,52.58
2018-01-07T01:07:09.784Z,52.65
2018-01-07T01:09:35.785Z,52.37
2018-01-07T01:12:01.770Z,52.84
2018-01-07T01:14:27.737Z,52.82
2018-01-07T01:16:53.709Z,52.82
2018-01-07T01:19:19.699Z,52.88
2018-01-07T01:21:45.646Z,52.76
2018-01-07T01:24:11.629Z,52.79
2018-01-07T01:26:37.627Z,52.79
2018-01-07T01:29:03.614Z,52.49
2018-01-07T01:31:29.628Z,52.48
2018-01-07T01:33:55.602Z,52.39
2018-01-07T01:36:21.566Z,52.17
2018-01-07T01:38:47.540Z,52.43
2018-01-07T01:41:13.517Z,52.50
2018-01-07T01:43:39.483Z,52.65
2018-01-07T01:46:05.442Z,52.74
2018-01-07T01:48:31.411Z,52.94
2018-01-07T01:50:57.394Z,52.69
2018-01-07T01:53:23.404Z,52.95
2018-01-07T01:55:49.391Z,52.86
2018-01-07T01:58:15.348Z,52.96
2018-01-07T02:00:41.338Z,52.90
2018-01-07T02:03:08.445Z,53.00
2018-01-07T02:05:34.397Z,52.87
2018-01-07T02:08:00.360Z,52.90
2018-01-07T02:10:26.326Z,52.97
2018-01-07T02:12:52.273Z,52.97
2018-01-07T02:15:18.275Z,52.55
2018-01-07T02:17:44.235Z,52.65
2018-01-07T02:20:10.228Z,52.66
2018-01-07T02:22:36.206Z,52.30
2018-01-07T02:25:02.313Z,52.54
2018-01-07T02:27:28.269Z,52.58
2018-01-07T02:29:54.219Z,52.43
2018-01-07T02:32:20.176Z,52.49
2018-01-07T02:34:46.138Z,52.88
2018-01-07T02:37:12.103Z,52.74
2018-01-07T02:39:38.099Z,52.95
2018-01-07T02:42:04.083Z,53.19
2018-01-07T02:44:30.053Z,52.92
2018-01-07T02:46:56.045Z,52.67
2018-01-07T02:49:22.015Z,53.20
2018-01-07T02:51:47.961Z,52.95
2018-01-07T02:54:13.942Z,53.01
2018-01-07T02:56:39.902Z,52.84
2018-01-07T02:59:05.864Z,53.00
2018-01-07T03:01:31.828Z,53.02
2018-01-07T03:03:57.847Z,52.19
2018-01-07T03:06:23.798Z,52.88
2018-01-07T03:08:49.786Z,52.18
2018-01-07T03:11:15.784Z,51.69
2018-01-07T03:13:41.786Z,52.13
2018-01-07T03:16:07.742Z,52.04
2018-01-07T03:18:33.759Z,52.61
2018-01-07T03:20:59.740Z,52.10
2018-01-07T03:23:25.724Z,51.98
2018-01-07T03:25:51.700Z,51.97
2018-01-07T03:28:17.679Z,52.36
2018-01-07T03:30:43.643Z,52.80
2018-01-07T03:33:09.609Z,52.86
2018-01-07T03:35:35.593Z,52.76
2018-01-07T03:38:01.599Z,52.24
2018-01-07T03:40:27.562Z,52.91
2018-01-07T03:42:53.600Z,52.56
2018-01-07T03:45:19.552Z,52.64
2018-01-07T03:47:45.525Z,53.08
2018-01-07T03:50:11.518Z,52.89
2018-01-07T03:52:37.473Z,52.92
2018-01-07T03:55:03.467Z,52.76
2018-01-07T03:57:29.414Z,51.82
2018-01-07T03:59:55.363Z,51.39
2018-01-07T04:02:21.348Z,51.54
2018-01-07T04:04:47.310Z,51.99
2018-01-07T04:07:13.294Z,51.95
2018-01-07T04:09:39.250Z,52.00
2018-01-07T04:12:05.219Z,51.81
2018-01-07T04:14:31.192Z,52.55
2018-01-07T04:16:57.149Z,52.87
2018-01-07T04:19:23.134Z,53.18
2018-01-07T04:21:49.125Z,52.95
2018-01-07T04:24:15.086Z,53.25
2018-01-07T04:26:41.065Z,52.46
2018-01-07T04:29:07.030Z,53.29
2018-01-07T04:31:32.990Z,53.30
2018-01-07T04:33:58.938Z,53.17
2018-01-07T04:36:24.919Z,53.27
2018-01-07T04:38:50.861Z,53.32
2018-01-07T04:41:16.853Z,52.52
2018-01-07T04:43:42.833Z,52.17
2018-01-07T04:46:08.822Z,51.91
2018-01-07T04:48:34.779Z,51.73
2018-01-07T04:51:00.766Z,51.52
2018-01-07T04:53:26.727Z,51.66
2018-01-07T04:55:52.694Z,52.82
2018-01-07T04:58:18.659Z,51.77
2018-01-07T05:00:44.630Z,52.44
2018-01-07T05:03:10.619Z,52.67
2018-01-07T05:05:36.580Z,52.21
2018-01-07T05:08:02.582Z,52.31
2018-01-07T05:10:28.586Z,53.00
2018-01-07T05:12:54.557Z,52.26
2018-01-07T05:15:20.548Z,53.25
2018-01-07T05:17:46.547Z,52.99
2018-01-07T05:20:12.501Z,52.75
2018-01-07T05:22:38.466Z,53.04
2018-01-07T05:25:04.423Z,53.07
2018-01-07T05:27:30.392Z,52.88
2018-01-07T05:29:56.348Z,52.83
2018-01-07T05:32:22.357Z,52.04
2018-01-07T05:34:48.307Z,51.62
2018-01-07T05:37:14.267Z,51.50
2018-01-07T05:39:40.214Z,51.82
2018-01-07T05:42:06.175Z,51.80
2018-01-07T05:44:32.163Z,51.81
2018-01-07T05:46:58.129Z,51.88
2018-01-07T05:49:24.094Z,51.83
2018-01-07T05:51:50.058Z,52.39
2018-01-07T05:54:16.046Z,52.26
2018-01-07T05:56:42.062Z,52.34
2018-01-07T05:59:08.059Z,52.67
2018-01-07T06:01:34.045Z,52.23
2018-01-07T06:04:00.018Z,53.13
2018-01-07T06:06:25.978Z,52.75
2018-01-07T06:08:51.939Z,52.83
2018-01-07T06:11:17.908Z,53.18
2018-01-07T06:13:43.861Z,53.33
2018-01-07T06:16:09.822Z,52.39
2018-01-07T06:18:35.789Z,52.45
2018-01-07T06:21:01.749Z,51.81
2018-01-07T06:23:27.814Z,51.37
2018-01-07T06:25:53.774Z,51.33
2018-01-07T06:28:19.746Z,50.73
2018-01-07T06:30:45.695Z,51.05
2018-01-07T06:33:11.667Z,50.78
2018-01-07T06:35:37.616Z,50.62
2018-01-07T06:38:03.604Z,50.80
2018-01-07T06:40:29.579Z,50.93
2018-01-07T06:42:55.548Z,50.91
2018-01-07T06:45:21.526Z,51.21
2018-01-07T06:47:47.513Z,50.72
2018-01-07T06:50:13.494Z,51.02
2018-01-07T06:52:39.488Z,50.90
2018-01-07T06:55:05.443Z,51.03
2018-01-07T06:57:31.427Z,50.99
2018-01-07T06:59:57.492Z,50.76
2018-01-07T07:02:23.443Z,50.72
2018-01-07T07:04:49.396Z,50.55
2018-01-07T07:07:15.347Z,50.56
2018-01-07T07:09:41.343Z,50.49
2018-01-07T07:12:07.315Z,50.09
2018-01-07T07:14:33.296Z,50.07
2018-01-07T07:16:59.290Z,50.18
2018-01-07T07:19:25.252Z,50.15
2018-01-07T07:21:51.232Z,49.98
2018-01-07T07:24:17.232Z,50.07
2018-01-07T07:26:43.203Z,50.55
2018-01-07T07:29:09.180Z,50.57
2018-01-07T07:31:35.159Z,51.03
2018-01-07T07:34:01.127Z,50.79
2018-01-07T07:36:27.082Z,50.92
2018-01-07T07:38:53.065Z,50.79
2018-01-07T07:41:19.033Z,50.72
2018-01-07T07:43:45.000Z,50.93
2018-01-07T07:46:10.993Z,50.92
2018-01-07T07:48:36.936Z,50.72
2018-01-07T07:51:02.913Z,50.77
2018-01-07T07:53:28.888Z,50.68
2018-01-07T07:55:54.863Z,50.83
2018-01-07T07:58:20.834Z,50.63
2018-01-07T08:00:46.804Z,50.41
2018-01-07T08:03:12.795Z,50.06
2018-01-07T08:05:38.791Z,50.21
2018-01-07T08:08:04.737Z,50.14
2018-01-07T08:10:30.696Z,50.23
2018-01-07T08:12:56.660Z,50.52
2018-01-07T08:15:22.645Z,50.44
2018-01-07T08:17:48.600Z,50.67
2018-01-07T08:20:14.595Z,50.79
2018-01-07T08:22:40.573Z,50.71
2018-01-07T08:25:06.546Z,50.63
2018-01-07T08:27:35.962Z,50.82
2018-01-07T08:30:01.940Z,50.99
2018-01-07T08:32:27.963Z,50.63
2018-01-07T08:34:53.954Z,50.59
2018-01-07T08:37:19.966Z,51.04
2018-01-07T08:39:45.960Z,50.98
2018-01-07T08:42:11.964Z,50.65
2018-01-07T08:44:38.712Z,50.49
2018-01-07T08:47:04.655Z,50.50
2018-01-07T08:49:30.622Z,50.59
2018-01-07T08:51:56.580Z,50.60
2018-01-07T08:54:22.574Z,50.23
2018-01-07T08:56:48.551Z,50.52
2018-01-07T08:59:14.532Z,50.29
2018-01-07T09:01:40.514Z,50.54
2018-01-07T09:04:06.515Z,50.30
2018-01-07T09:06:32.508Z,50.59
2018-01-07T09:09:02.989Z,50.68
2018-01-07T09:11:28.986Z,50.57
2018-01-07T09:13:54.962Z,50.84
2018-01-07T09:16:20.955Z,50.80
2018-01-07T09:18:48.010Z,50.78
2018-01-07T09:21:14.048Z,50.82
2018-01-07T09:23:40.024Z,50.58
2018-01-07T09:26:05.996Z,51.15
2018-01-07T09:28:31.995Z,50.57
2018-01-07T09:30:57.958Z,50.39
2018-01-07T09:33:23.966Z,50.13
2018-01-07T09:35:49.928Z,50.21
2018-01-07T09:38:15.925Z,49.99
2018-01-07T09:40:41.908Z,49.73
2018-01-07T09:43:07.861Z,49.90
2018-01-07T09:45:33.823Z,49.80
2018-01-07T09:47:59.775Z,50.03
2018-01-07T09:50:25.748Z,49.81
2018-01-07T09:52:51.744Z,50.11
2018-01-07T09:55:17.711Z,50.33
2018-01-07T09:57:43.673Z,50.32
2018-01-07T10:00:09.649Z,50.42
2018-01-07T10:02:35.829Z,50.39
2018-01-07T10:05:01.819Z,50.26
2018-01-07T10:07:27.813Z,50.37
2018-01-07T10:09:53.814Z,50.23
2018-01-07T10:12:19.788Z,50.30
2018-01-07T10:14:45.880Z,50.20
2018-01-07T10:17:11.957Z,50.24
2018-01-07T10:19:37.969Z,50.42
2018-01-07T10:22:03.998Z,50.16
2018-01-07T10:24:29.951Z,50.30
2018-01-07T10:26:55.958Z,50.92
2018-01-07T10:29:21.924Z,49.77
2018-01-07T10:31:47.916Z,50.03
2018-01-07T10:34:14.027Z,50.17
2018-01-07T10:36:40.015Z,50.18
2018-01-07T10:39:05.993Z,50.23
2018-01-07T10:41:32.006Z,50.24
2018-01-07T10:43:57.990Z,50.43
2018-01-07T10:46:23.944Z,50.35
2018-01-07T10:48:49.953Z,50.38
2018-01-07T10:51:15.941Z,50.64
2018-01-07T10:53:41.910Z,50.36
2018-01-07T10:56:07.895Z,50.38
2018-01-07T10:58:33.899Z,50.37
2018-01-07T11:00:59.888Z,50.13
2018-01-07T11:03:25.927Z,50.11
2018-01-07T11:05:51.988Z,50.33
2018-01-07T11:08:17.928Z,50.66
2018-01-07T11:10:43.922Z,50.30
2018-01-07T11:13:09.882Z,50.20
2018-01-07T11:15:35.840Z,50.03
2018-01-07T11:18:01.800Z,50.02
2018-01-07T11:20:27.805Z,50.10
2018-01-07T11:22:53.749Z,49.72
2018-01-07T11:25:19.735Z,50.18
2018-01-07T11:27:45.716Z,50.10
2018-01-07T11:30:11.751Z,50.05
2018-01-07T11:32:37.713Z,50.33
2018-01-07T11:35:03.660Z,50.33
2018-01-07T11:37:29.746Z,50.34
2018-01-07T11:39:55.724Z,50.20
2018-01-07T11:42:21.683Z,50.38
2018-01-07T11:44:47.668Z,50.18
2018-01-07T11:47:13.635Z,50.71
2018-01-07T11:49:39.612Z,50.28
2018-01-07T11:52:05.563Z,50.20
2018-01-07T11:54:31.527Z,50.71
2018-01-07T11:56:57.526Z,50.41
2018-01-07T11:59:24.520Z,50.36
2018-01-07T12:01:50.562Z,49.89
2018-01-07T12:04:16.507Z,49.87
2018-01-07T12:06:42.600Z,49.83
2018-01-07T12:09:09.638Z,49.83
2018-01-07T12:11:35.691Z,50.01
2018-01-07T12:14:01.650Z,49.79
2018-01-07T12:16:27.607Z,49.97
2018-01-07T12:18:53.603Z,50.32
2018-01-07T12:21:19.687Z,50.54
2018-01-07T12:23:45.673Z,50.27
2018-01-07T12:26:11.714Z,50.44
2018-01-07T12:28:37.736Z,50.11
2018-01-07T12:31:03.720Z,50.36
2018-01-07T12:33:29.747Z,50.75
2018-01-07T12:35:55.708Z,50.11
2018-01-07T12:38:21.701Z,50.37
2018-01-07T12:40:47.654Z,50.40
2018-01-07T12:43:13.648Z,50.25
2018-01-07T12:45:41.649Z,50.46
2018-01-07T12:48:07.622Z,50.08
2018-01-07T12:50:33.590Z,50.99
2018-01-07T12:52:59.549Z,49.96
2018-01-07T12:55:25.553Z,49.97
2018-01-07T12:57:55.352Z,49.90
2018-01-07T13:00:21.346Z,49.69
2018-01-07T13:02:47.332Z,49.98
2018-01-07T13:05:13.290Z,49.79
2018-01-07T13:07:41.324Z,49.66
2018-01-07T13:10:09.132Z,50.05
2018-01-07T13:12:38.694Z,50.79
2018-01-07T13:15:04.765Z,50.12
2018-01-07T13:17:30.729Z,49.83
2018-01-07T13:19:58.722Z,49.86
2018-01-07T13:22:24.725Z,50.47
2018-01-07T13:24:50.688Z,50.17
2018-01-07T13:27:16.651Z,49.86
2018-01-07T13:29:42.792Z,49.86
2018-01-07T13:32:08.808Z,49.89
2018-01-07T13:34:35.357Z,50.44
2018-01-07T13:37:01.345Z,50.28
2018-01-07T13:39:27.304Z,49.87
2018-01-07T13:41:53.247Z,49.88
2018-01-07T13:44:19.336Z,50.08
2018-01-07T13:46:45.342Z,49.95
2018-01-07T13:49:11.444Z,49.81
2018-01-07T13:51:37.864Z,50.07
2018-01-07T13:54:03.848Z,49.95
2018-01-07T13:56:29.833Z,50.04
2018-01-07T13:58:55.802Z,50.13
2018-01-07T14:01:21.810Z,50.13
2018-01-07T14:03:47.784Z,50.01
2018-01-07T14:06:13.887Z,50.17
2018-01-07T14:08:39.918Z,50.26
2018-01-07T14:11:05.911Z,49.99
2018-01-07T14:13:31.917Z,50.07
2018-01-07T14:15:58.108Z,50.02
2018-01-07T14:18:24.126Z,50.02
2018-01-07T14:20:50.162Z,49.87
2018-01-07T14:23:16.133Z,50.03
2018-01-07T14:25:42.126Z,49.96
2018-01-07T14:28:08.083Z,49.98
2018-01-07T14:30:34.113Z,50.10
2018-01-07T14:33:00.071Z,50.05
2018-01-07T14:35:26.129Z,50.06
2018-01-07T14:37:52.126Z,50.21
2018-01-07T14:40:18.107Z,50.52
2018-01-07T14:42:44.067Z,50.56
2018-01-07T14:45:10.028Z,50.49
2018-01-07T14:47:35.999Z,50.57
2018-01-07T14:50:02.008Z,50.72
2018-01-07T14:52:27.989Z,50.65
2018-01-07T14:54:54.004Z,50.40
2018-01-07T14:57:19.957Z,50.46
2018-01-07T14:59:45.931Z,50.52
2018-01-07T15:02:11.912Z,50.49
2018-01-07T15:04:37.888Z,50.46
2018-01-07T15:07:03.905Z,50.28
2018-01-07T15:09:29.952Z,50.93
2018-01-07T15:11:55.923Z,51.76
2018-01-07T15:14:21.926Z,51.32
2018-01-07T15:16:47.905Z,50.74
2018-01-07T15:19:13.930Z,50.37
2018-01-07T15:21:39.931Z,49.99
2018-01-07T15:24:05.912Z,50.08
2018-01-07T15:26:31.898Z,50.39
2018-01-07T15:28:57.922Z,50.45
2018-01-07T15:31:23.910Z,50.38
2018-01-07T15:33:49.915Z,50.56
2018-01-07T15:36:15.895Z,50.67
2018-01-07T15:38:41.858Z,50.46
2018-01-07T15:41:07.820Z,50.58
2018-01-07T15:43:33.881Z,50.52
2018-01-07T15:45:59.867Z,50.49
2018-01-07T15:48:25.835Z,50.54
2018-01-07T15:50:51.809Z,50.64
2018-01-07T15:53:17.791Z,50.69
2018-01-07T15:55:43.803Z,50.41
2018-01-07T15:58:09.793Z,50.43
2018-01-07T16:00:35.803Z,50.23
2018-01-07T16:03:01.810Z,50.20
2018-01-07T16:05:27.811Z,50.09
2018-01-07T16:07:53.784Z,49.74
2018-01-07T16:10:19.820Z,49.76
2018-01-07T16:12:50.654Z,49.85
2018-01-07T16:15:16.841Z,49.80
2018-01-07T16:17:42.798Z,49.74
2018-01-07T16:20:08.770Z,49.84
2018-01-07T16:22:34.741Z,50.07
2018-01-07T16:25:00.700Z,49.87
2018-01-07T16:27:26.777Z,50.23
2018-01-07T16:29:52.787Z,50.09
2018-01-07T16:32:18.786Z,50.15
2018-01-07T16:34:44.778Z,50.18
2018-01-07T16:37:10.753Z,50.03
2018-01-07T16:39:36.729Z,50.06
2018-01-07T16:42:02.817Z,49.91
2018-01-07T16:44:28.781Z,50.04
2018-01-07T16:46:54.859Z,50.00
2018-01-07T16:49:20.919Z,50.01
2018-01-07T16:51:46.944Z,49.91
2018-01-07T16:54:12.956Z,49.96
2018-01-07T16:56:38.920Z,49.80
2018-01-07T16:59:04.986Z,49.98
2018-01-07T17:01:30.962Z,49.98
2018-01-07T17:03:57.025Z,50.02
2018-01-07T17:06:23.003Z,50.38
2018-01-07T17:08:50.074Z,50.09
2018-01-07T17:11:16.068Z,50.82
2018-01-07T17:13:42.031Z,50.93
2018-01-07T17:16:08.096Z,50.49
2018-01-07T17:18:34.113Z,50.25
2018-01-07T17:21:00.142Z,50.18
2018-01-07T17:23:26.117Z,50.14
2018-01-07T17:25:52.088Z,49.95
2018-01-07T17:28:18.124Z,50.34
2018-01-07T17:30:44.234Z,50.59
2018-01-07T17:33:10.222Z,50.05
2018-01-07T17:35:36.278Z,50.11
2018-01-07T17:38:02.194Z,50.27
2018-01-07T17:40:28.159Z,50.00
2018-01-07T17:42:54.246Z,49.96
2018-01-07T17:45:20.221Z,49.89
2018-01-07T17:47:46.231Z,49.84
2018-01-07T17:50:12.296Z,49.92
2018-01-07T17:52:38.283Z,49.96
2018-01-07T17:55:04.359Z,50.15
2018-01-07T17:57:30.358Z,50.16
2018-01-07T17:59:56.564Z,50.25
2018-01-07T18:02:22.572Z,50.40
2018-01-07T18:04:48.608Z,50.31
2018-01-07T18:07:14.864Z,50.32
2018-01-07T18:09:41.200Z,50.45
2018-01-07T18:12:07.551Z,50.34
2018-01-07T18:14:33.614Z,50.44
2018-01-07T18:16:59.583Z,50.36
2018-01-07T18:19:25.539Z,50.51
2018-01-07T18:21:51.572Z,50.47
2018-01-07T18:24:17.587Z,50.46
2018-01-07T18:26:43.579Z,50.42
2018-01-07T18:29:09.596Z,50.45
2018-01-07T18:31:35.681Z,50.38
2018-01-07T18:34:01.671Z,50.10
2018-01-07T18:36:27.698Z,49.70
2018-01-07T18:38:53.665Z,50.13
2018-01-07T18:41:19.661Z,49.89
2018-01-07T18:43:45.946Z,50.17
2018-01-07T18:46:12.125Z,50.13
2018-01-07T18:48:38.107Z,50.32
2018-01-07T18:51:04.140Z,50.38
2018-01-07T18:53:30.185Z,50.34
2018-01-07T18:55:56.179Z,50.25
2018-01-07T18:58:22.193Z,50.21
2018-01-07T19:00:48.184Z,50.29
2018-01-07T19:03:14.197Z,50.68
2018-01-07T19:05:40.177Z,50.17
2018-01-07T19:08:06.173Z,50.32
2018-01-07T19:10:32.148Z,50.18
2018-01-07T19:12:58.388Z,50.19
2018-01-07T19:15:24.399Z,50.21
2018-01-07T19:17:50.391Z,50.34
2018-01-07T19:20:16.485Z,50.16
2018-01-07T19:22:42.921Z,50.19
2018-01-07T19:25:09.388Z,49.95
2018-01-07T19:27:35.582Z,50.19
2018-01-07T19:30:01.697Z,50.33
2018-01-07T19:32:27.812Z,50.20
2018-01-07T19:34:53.833Z,50.31
2018-01-07T19:37:20.339Z,50.74
2018-01-07T19:39:46.335Z,50.20
2018-01-07T19:42:12.551Z,50.44
2018-01-07T19:44:38.612Z,50.28
2018-01-07T19:47:04.794Z,50.16
2018-01-07T19:49:31.057Z,50.06
2018-01-07T19:51:57.809Z,50.04
2018-01-07T19:54:25.444Z,50.08
2018-01-07T19:56:51.763Z,50.13
2018-01-07T19:59:18.080Z,50.02
2018-01-07T20:01:44.471Z,50.37
2018-01-07T20:04:10.535Z,50.13
2018-01-07T20:06:36.750Z,50.21
2018-01-07T20:09:03.248Z,50.07
2018-01-07T20:11:29.564Z,49.97
2018-01-07T20:13:55.853Z,50.19
2018-01-07T20:16:21.870Z,50.07
2018-01-07T20:18:48.186Z,50.19
2018-01-07T20:21:14.288Z,50.21
2018-01-07T20:23:40.280Z,50.38
2018-01-07T20:26:06.343Z,50.40
2018-01-07T20:28:32.323Z,50.49
2018-01-07T20:30:58.308Z,50.37
2018-01-07T20:33:24.583Z,50.46
2018-01-07T20:35:50.662Z,50.60
2018-01-07T20:38:16.889Z,50.90
2018-01-07T20:40:43.066Z,50.36
2018-01-07T20:43:09.164Z,50.25
2018-01-07T20:45:35.138Z,50.35
2018-01-07T20:48:01.113Z,50.71
2018-01-07T20:50:27.103Z,50.83
2018-01-07T20:52:54.253Z,50.53
2018-01-07T20:55:20.291Z,50.39
2018-01-07T20:57:46.315Z,50.51
2018-01-07T21:00:12.304Z,50.43
2018-01-07T21:02:38.345Z,50.66
2018-01-07T21:05:04.359Z,50.76
2018-01-07T21:07:31.406Z,51.07
2018-01-07T21:09:57.870Z,52.16
2018-01-07T21:12:23.883Z,51.81
2018-01-07T21:14:49.843Z,51.73
2018-01-07T21:17:15.830Z,51.58
2018-01-07T21:19:42.659Z,51.47
2018-01-07T21:22:08.738Z,51.69
2018-01-07T21:24:34.707Z,51.63
2018-01-07T21:27:01.719Z,51.87
2018-01-07T21:29:27.705Z,51.93
2018-01-07T21:31:53.818Z,51.78
2018-01-07T21:34:19.853Z,51.48
2018-01-07T21:36:45.878Z,51.49
2018-01-07T21:39:11.922Z,51.57
2018-01-07T21:41:37.907Z,51.41
2018-01-07T21:44:03.978Z,51.42
2018-01-07T21:46:29.931Z,51.06
2018-01-07T21:48:55.919Z,50.97
2018-01-07T21:51:22.970Z,50.99
2018-01-07T21:53:48.986Z,50.97
2018-01-07T21:56:14.942Z,51.03
2018-01-07T21:58:40.939Z,51.18
2018-01-07T22:01:06.894Z,51.17
2018-01-07T22:03:32.912Z,51.56
2018-01-07T22:05:58.878Z,51.95
2018-01-07T22:08:24.851Z,51.74
2018-01-07T22:10:50.832Z,51.47
2018-01-07T22:13:17.846Z,51.48
2018-01-07T22:15:43.819Z,51.44
2018-01-07T22:18:09.782Z,51.25
2018-01-07T22:20:35.749Z,51.26
2018-01-07T22:23:01.724Z,51.20
2018-01-07T22:25:27.709Z,51.23
2018-01-07T22:27:53.704Z,51.43
2018-01-07T22:30:19.690Z,51.26
2018-01-07T22:32:46.767Z,51.14
2018-01-07T22:35:13.588Z,50.76
2018-01-07T22:37:39.794Z,50.67
2018-01-07T22:40:05.815Z,50.53
2018-01-07T22:42:31.848Z,50.73
2018-01-07T22:44:58.036Z,50.31
2018-01-07T22:47:24.078Z,50.35
2018-01-07T22:49:50.726Z,50.66
2018-01-07T22:52:17.033Z,50.81
2018-01-07T22:54:43.226Z,50.80
2018-01-07T22:57:09.471Z,51.12
2018-01-07T22:59:35.643Z,51.01
2018-01-07T23:02:02.053Z,50.89
2018-01-07T23:04:28.322Z,50.74
2018-01-07T23:06:54.918Z,50.80
2018-01-07T23:09:20.928Z,50.69
2018-01-07T23:11:47.630Z,50.62
2018-01-07T23:14:13.742Z,50.33
2018-01-07T23:16:40.130Z,50.32
2018-01-07T23:19:06.408Z,50.51
2018-01-07T23:21:32.400Z,50.54
2018-01-07T23:23:58.454Z,50.57
2018-01-07T23:26:24.434Z,50.48
2018-01-07T23:28:50.412Z,50.61
2018-01-07T23:31:16.379Z,50.74
2018-01-07T23:33:42.451Z,50.55
2018-01-07T23:36:08.516Z,50.81
2018-01-07T23:38:34.502Z,50.77
2018-01-07T23:41:00.497Z,50.90
2018-01-07T23:43:26.462Z,50.74
2018-01-07T23:45:52.436Z,50.90
2018-01-07T23:48:18.406Z,50.68
2018-01-07T23:50:44.370Z,50.71
2018-01-07T23:53:10.353Z,50.79
2018-01-07T23:55:36.292Z,50.86
2018-01-07T23:58:02.249Z,50.88
